Time;durP1;ratioP1;P1;durP2;ratioP2;P2;SDS_P1;SDS_P2;PMS_P1;PMS_P2;Temp;Humidity;BMP_temperature;BMP_pressure;BME280_temperature;BME280_humidity;BME280_pressure;Samples;Min_cycle;Max_cycle;Signal;HPM_P1;HPM_P2
2022/06/15 00:01:17;;;;;;;2.95;1.65;;;18.90;46.40;;;;;;5036337;28;20404;-59
2022/06/15 00:03:44;;;;;;;4.20;2.10;;;18.90;46.50;;;;;;5040072;28;20053;-57
2022/06/15 00:06:15;;;;;;;6.97;2.15;;;18.80;46.40;;;;;;5039030;28;20479;-59
2022/06/15 00:08:45;;;;;;;4.45;1.80;;;18.80;46.80;;;;;;5041750;28;20049;-59
2022/06/15 00:11:15;;;;;;;4.22;1.73;;;18.80;46.80;;;;;;5036880;28;20049;-59
2022/06/15 00:13:43;;;;;;;5.45;2.20;;;18.70;46.80;;;;;;5041568;28;20060;-59
2022/06/15 00:16:11;;;;;;;6.53;2.20;;;18.70;46.80;;;;;;5039230;28;20052;-59
2022/06/15 00:18:39;;;;;;;6.22;1.90;;;18.60;46.90;;;;;;5034691;28;20075;-57
2022/06/15 00:21:07;;;;;;;4.93;2.03;;;18.50;46.90;;;;;;5037872;28;20526;-55
2022/06/15 00:23:36;;;;;;;3.58;2.17;;;18.50;46.90;;;;;;5038121;28;20068;-59
2022/06/15 00:26:05;;;;;;;3.40;1.65;;;18.50;47.00;;;;;;5036431;28;20068;-57
2022/06/15 00:28:33;;;;;;;6.70;1.80;;;18.50;47.10;;;;;;5041505;28;20056;-59
2022/06/15 00:31:01;;;;;;;8.07;1.95;;;18.50;47.20;;;;;;5036459;28;20506;-57
2022/06/15 00:33:29;;;;;;;3.92;1.70;;;18.40;47.30;;;;;;5036976;28;20607;-59
2022/06/15 00:35:59;;;;;;;4.40;1.88;;;18.40;47.40;;;;;;5037405;28;20076;-57
2022/06/15 00:38:30;;;;;;;3.70;2.00;;;18.30;47.40;;;;;;5037451;28;20060;-59
2022/06/15 00:41:00;;;;;;;6.68;2.03;;;18.30;47.60;;;;;;5034543;28;20052;-59
2022/06/15 00:43:35;;;;;;;5.03;2.25;;;18.30;47.60;;;;;;5038102;28;20064;-57
2022/06/15 00:46:13;;;;;;;7.15;2.50;;;18.20;47.80;;;;;;5039365;28;20069;-56
2022/06/15 00:48:42;;;;;;;7.25;2.33;;;18.20;48.00;;;;;;5039915;28;20060;-59
2022/06/15 00:51:10;;;;;;;5.57;2.15;;;18.10;47.90;;;;;;5037232;28;20052;-58
2022/06/15 00:53:38;;;;;;;5.32;2.40;;;18.10;48.00;;;;;;5034113;28;20057;-59
2022/06/15 00:56:09;;;;;;;4.40;2.13;;;18.10;48.20;;;;;;5039174;28;20453;-56
2022/06/15 00:58:38;;;;;;;4.80;2.15;;;18.00;48.20;;;;;;5041460;28;20064;-59
2022/06/15 01:01:06;;;;;;;5.95;2.50;;;18.00;48.20;;;;;;5037262;28;20056;-59
2022/06/15 01:03:34;;;;;;;3.85;1.92;;;17.90;48.30;;;;;;5036881;28;20060;-59
2022/06/15 01:06:11;;;;;;;8.98;2.20;;;17.90;48.40;;;;;;5038068;28;20061;-58
2022/06/15 01:08:46;;;;;;;6.22;2.15;;;17.90;48.70;;;;;;5037369;28;20045;-59
2022/06/15 01:11:38;;;;;;;4.70;2.28;;;17.90;48.70;;;;;;5036973;28;20056;-59
2022/06/15 01:14:26;;;;;;;4.13;2.22;;;17.80;48.80;;;;;;5040283;28;20056;-59
2022/06/15 01:17:02;;;;;;;5.60;2.05;;;17.80;48.90;;;;;;5037336;28;20056;-59
2022/06/15 01:20:01;;;;;;;3.10;1.80;;;17.80;48.80;;;;;;5040578;28;20049;-59
2022/06/15 01:23:03;;;;;;;4.03;2.22;;;17.80;49.00;;;;;;5036868;28;20061;-59
2022/06/15 01:25:40;;;;;;;5.65;1.90;;;17.80;49.20;;;;;;5039232;28;20071;-59
2022/06/15 01:28:39;;;;;;;3.67;1.77;;;17.70;49.00;;;;;;5041917;28;20056;-57
2022/06/15 01:31:20;;;;;;;5.13;2.65;;;17.70;49.20;;;;;;5036796;28;21390;-57
2022/06/15 01:34:01;;;;;;;5.45;2.13;;;17.70;49.20;;;;;;5040647;28;20056;-59
2022/06/15 01:36:37;;;;;;;5.68;1.95;;;17.60;49.10;;;;;;5038562;28;20057;-58
2022/06/15 01:39:11;;;;;;;2.72;1.85;;;17.60;49.10;;;;;;5032149;28;20059;-59
2022/06/15 01:41:45;;;;;;;5.68;2.60;;;17.60;49.20;;;;;;5038501;28;20057;-60
2022/06/15 01:44:18;;;;;;;4.65;2.38;;;17.50;49.40;;;;;;5039399;28;20412;-59
2022/06/15 01:46:48;;;;;;;5.25;3.00;;;17.50;49.40;;;;;;5038889;28;20053;-59
2022/06/15 01:49:20;;;;;;;4.45;2.10;;;17.50;49.40;;;;;;5038487;28;20484;-59
2022/06/15 01:51:48;;;;;;;4.88;2.47;;;17.50;49.50;;;;;;5037726;28;20056;-59
2022/06/15 01:54:22;;;;;;;3.65;1.98;;;17.50;49.60;;;;;;5039566;28;20057;-59
2022/06/15 01:56:52;;;;;;;5.53;2.30;;;17.40;49.70;;;;;;5039225;28;20056;-59
2022/06/15 01:59:29;;;;;;;6.20;2.63;;;17.40;49.70;;;;;;5037731;28;20057;-59
2022/06/15 02:02:05;;;;;;;5.13;2.20;;;17.40;49.80;;;;;;5036622;28;20048;-59
2022/06/15 02:04:39;;;;;;;6.00;2.38;;;17.40;49.90;;;;;;5039064;28;20053;-59
2022/06/15 02:07:16;;;;;;;4.60;2.40;;;17.40;49.90;;;;;;5041300;28;20397;-60
2022/06/15 02:09:49;;;;;;;5.50;2.40;;;17.30;49.90;;;;;;5038296;28;20064;-59
2022/06/15 02:12:22;;;;;;;6.78;2.33;;;17.30;50.00;;;;;;5041941;28;20523;-59
2022/06/15 02:14:53;;;;;;;5.65;2.38;;;17.20;50.00;;;;;;5041202;28;20063;-59
2022/06/15 02:17:28;;;;;;;3.70;2.05;;;17.20;50.10;;;;;;5043073;28;20060;-59
2022/06/15 02:20:00;;;;;;;5.03;2.42;;;17.20;50.20;;;;;;5040154;28;20057;-59
2022/06/15 02:22:31;;;;;;;5.03;2.38;;;17.10;50.20;;;;;;5043012;28;20049;-58
2022/06/15 02:25:03;;;;;;;7.20;2.50;;;17.10;50.30;;;;;;5040939;28;20049;-59
2022/06/15 02:27:32;;;;;;;5.97;2.55;;;17.10;50.30;;;;;;5043621;28;20059;-59
2022/06/15 02:30:05;;;;;;;6.85;2.67;;;17.10;50.30;;;;;;5040807;28;20057;-59
2022/06/15 02:32:36;;;;;;;6.22;2.35;;;17.00;50.30;;;;;;5042279;28;20060;-59
2022/06/15 02:35:04;;;;;;;5.75;2.50;;;17.00;50.50;;;;;;5040676;28;20057;-59
2022/06/15 02:37:32;;;;;;;4.60;2.08;;;17.00;50.40;;;;;;5043764;28;20059;-59
2022/06/15 02:39:59;;;;;;;3.95;2.15;;;17.00;50.40;;;;;;5038719;28;20057;-59
2022/06/15 02:42:31;;;;;;;6.07;2.35;;;16.90;50.40;;;;;;5040362;28;20057;-59
2022/06/15 02:45:02;;;;;;;4.57;2.20;;;16.90;50.60;;;;;;5041287;28;20056;-59
2022/06/15 02:47:33;;;;;;;5.78;2.40;;;16.80;50.60;;;;;;5044204;28;20064;-57
2022/06/15 02:50:04;;;;;;;4.00;2.20;;;16.80;50.70;;;;;;5041227;28;20061;-59
2022/06/15 02:52:39;;;;;;;4.75;2.42;;;16.80;50.70;;;;;;5041136;28;20056;-58
2022/06/15 02:55:08;;;;;;;5.00;2.47;;;16.80;50.70;;;;;;5043354;28;20057;-58
2022/06/15 02:57:44;;;;;;;6.72;2.92;;;16.70;50.80;;;;;;5043951;28;20053;-59
2022/06/15 03:00:13;;;;;;;5.80;2.55;;;16.70;51.00;;;;;;5039326;28;20404;-56
2022/06/15 03:02:41;;;;;;;5.22;2.58;;;16.70;50.90;;;;;;5041596;28;20055;-59
2022/06/15 03:05:10;;;;;;;6.60;2.33;;;16.70;51.00;;;;;;5042154;28;20412;-59
2022/06/15 03:07:37;;;;;;;5.35;2.33;;;16.60;51.10;;;;;;5043895;28;20424;-59
2022/06/15 03:10:06;;;;;;;3.45;2.10;;;16.60;51.10;;;;;;5039835;28;20485;-59
2022/06/15 03:12:33;;;;;;;4.95;2.03;;;16.60;51.20;;;;;;5041876;28;20052;-59
2022/06/15 03:15:01;;;;;;;4.63;2.22;;;16.60;51.30;;;;;;5040481;28;20412;-59
2022/06/15 03:17:28;;;;;;;6.13;2.65;;;16.50;51.30;;;;;;5041541;28;20049;-59
2022/06/15 03:19:56;;;;;;;6.28;2.38;;;16.50;51.40;;;;;;5039226;28;20062;-58
2022/06/15 03:22:25;;;;;;;4.28;2.10;;;16.50;51.50;;;;;;5041127;28;20053;-57
2022/06/15 03:24:52;;;;;;;5.65;2.58;;;16.50;51.50;;;;;;5038659;28;20067;-58
2022/06/15 03:27:20;;;;;;;4.82;2.78;;;16.50;51.60;;;;;;5039662;28;20068;-58
2022/06/15 03:29:50;;;;;;;4.57;2.38;;;16.50;51.60;;;;;;5038073;28;20056;-59
2022/06/15 03:32:17;;;;;;;3.67;2.35;;;16.50;51.60;;;;;;5039289;28;20373;-59
2022/06/15 03:34:45;;;;;;;7.80;2.30;;;16.50;51.60;;;;;;5040452;28;20057;-59
2022/06/15 03:37:12;;;;;;;3.30;2.03;;;16.50;51.70;;;;;;5042349;28;20053;-59
2022/06/15 03:39:41;;;;;;;8.20;2.78;;;16.50;51.70;;;;;;5042410;28;20053;-59
2022/06/15 03:42:11;;;;;;;4.22;2.30;;;16.50;51.80;;;;;;5033235;28;20049;-59
2022/06/15 03:44:40;;;;;;;3.50;1.98;;;16.50;51.80;;;;;;5039074;28;20065;-59
2022/06/15 03:47:09;;;;;;;7.10;3.63;;;16.40;51.80;;;;;;5039115;28;20132;-59
2022/06/15 03:49:36;;;;;;;8.80;4.07;;;16.40;51.90;;;;;;5041865;28;20420;-59
2022/06/15 03:52:05;;;;;;;8.35;3.20;;;16.50;52.00;;;;;;5040396;28;20408;-59
2022/06/15 03:54:32;;;;;;;6.45;2.90;;;16.40;52.00;;;;;;5041920;28;20053;-59
2022/06/15 03:57:01;;;;;;;7.95;3.05;;;16.40;52.00;;;;;;5039920;28;20056;-59
2022/06/15 03:59:28;;;;;;;3.50;2.38;;;16.40;52.10;;;;;;5041261;28;20055;-57
2022/06/15 04:01:56;;;;;;;2.78;1.85;;;16.40;52.10;;;;;;5037917;28;20064;-59
2022/06/15 04:04:24;;;;;;;4.82;2.30;;;16.40;52.10;;;;;;5040241;28;20056;-59
2022/06/15 04:06:51;;;;;;;19.77;10.65;;;16.40;52.10;;;;;;5039207;28;20432;-59
2022/06/15 04:09:21;;;;;;;15.35;6.85;;;16.40;52.20;;;;;;5042328;28;20519;-59
2022/06/15 04:14:33;;;;;;;8.90;3.60;;;16.40;52.30;;;;;;5040154;28;20041;-59
2022/06/15 04:17:01;;;;;;;4.78;2.70;;;16.40;52.30;;;;;;5030671;28;20053;-59
2022/06/15 04:19:30;;;;;;;4.43;2.20;;;16.40;52.30;;;;;;5033427;28;20647;-59
2022/06/15 04:21:59;;;;;;;3.30;2.03;;;16.40;52.40;;;;;;5037886;28;20060;-57
2022/06/15 04:24:28;;;;;;;5.85;2.50;;;16.40;52.50;;;;;;5040496;28;20065;-57
2022/06/15 04:26:57;;;;;;;5.00;2.42;;;16.40;52.70;;;;;;5034303;28;20064;-59
2022/06/15 04:29:26;;;;;;;4.88;2.42;;;16.40;52.70;;;;;;5039121;28;20060;-59
2022/06/15 04:31:55;;;;;;;7.10;2.13;;;16.40;52.80;;;;;;5038971;28;20056;-59
2022/06/15 04:34:22;;;;;;;7.93;3.00;;;16.40;52.90;;;;;;5039975;28;20061;-59
2022/06/15 04:36:50;;;;;;;17.88;9.40;;;16.50;52.90;;;;;;5041137;28;20052;-59
2022/06/15 04:39:17;;;;;;;9.20;5.10;;;16.50;52.90;;;;;;5037897;28;20082;-59
2022/06/15 04:41:44;;;;;;;6.25;3.20;;;16.50;53.00;;;;;;5034146;28;20053;-59
2022/06/15 04:44:13;;;;;;;7.18;3.05;;;16.50;53.00;;;;;;5034338;28;20481;-60
2022/06/15 04:46:41;;;;;;;4.90;2.58;;;16.50;53.00;;;;;;5038426;28;20062;-59
2022/06/15 04:49:10;;;;;;;4.88;2.60;;;16.50;53.00;;;;;;5034870;28;20056;-59
2022/06/15 04:51:42;;;;;;;5.13;2.53;;;16.50;53.00;;;;;;5039401;28;20803;-59
2022/06/15 04:54:10;;;;;;;3.67;2.30;;;16.50;53.00;;;;;;5041536;28;20513;-59
2022/06/15 04:56:39;;;;;;;5.32;2.35;;;16.60;52.90;;;;;;5036880;28;20420;-59
2022/06/15 04:59:06;;;;;;;5.25;2.28;;;16.60;52.90;;;;;;5037014;28;20421;-59
2022/06/15 05:01:34;;;;;;;6.55;2.28;;;16.60;53.00;;;;;;5037454;28;20049;-59
2022/06/15 05:04:01;;;;;;;4.35;2.22;;;16.60;53.00;;;;;;5041103;28;20065;-59
2022/06/15 05:06:36;;;;;;;4.25;2.10;;;16.70;53.00;;;;;;5040120;28;20428;-59
2022/06/15 05:09:04;;;;;;;3.42;2.08;;;16.70;53.20;;;;;;5038869;28;20057;-59
2022/06/15 05:11:33;;;;;;;4.47;2.40;;;16.70;53.10;;;;;;5035803;28;20076;-59
2022/06/15 05:14:01;;;;;;;5.00;2.30;;;16.80;53.20;;;;;;5039099;28;20056;-60
2022/06/15 05:16:29;;;;;;;6.07;3.10;;;16.80;53.30;;;;;;5037885;28;20049;-60
2022/06/15 05:18:57;;;;;;;4.25;2.20;;;16.80;53.70;;;;;;5039186;28;20049;-59
2022/06/15 05:21:27;;;;;;;4.60;2.13;;;16.90;53.80;;;;;;5038749;28;20492;-60
2022/06/15 05:23:56;;;;;;;5.28;2.22;;;16.90;53.80;;;;;;5039541;28;20053;-60
2022/06/15 05:26:24;;;;;;;6.38;2.40;;;16.90;53.90;;;;;;5036077;28;20058;-60
2022/06/15 05:28:52;;;;;;;4.60;1.98;;;17.00;54.00;;;;;;5039139;28;20069;-60
2022/06/15 05:31:22;;;;;;;5.32;2.08;;;17.10;54.10;;;;;;5037155;28;20488;-60
2022/06/15 05:33:53;;;;;;;5.40;2.10;;;17.10;54.20;;;;;;5039779;28;20063;-60
2022/06/15 05:36:23;;;;;;;4.82;2.00;;;17.20;54.10;;;;;;5040521;28;20049;-60
2022/06/15 05:38:51;;;;;;;5.20;2.38;;;17.20;54.20;;;;;;5040588;28;20060;-60
2022/06/15 05:41:20;;;;;;;6.05;2.33;;;17.30;54.10;;;;;;5036418;28;20060;-60
2022/06/15 05:43:47;;;;;;;3.65;2.38;;;17.40;54.20;;;;;;5045234;28;20053;-60
2022/06/15 05:46:23;;;;;;;6.00;2.63;;;17.40;54.20;;;;;;5046954;28;20064;-60
2022/06/15 05:48:51;;;;;;;3.60;2.00;;;17.50;54.60;;;;;;5045992;28;20080;-59
2022/06/15 05:51:18;;;;;;;3.92;2.20;;;17.50;54.30;;;;;;5038541;28;20392;-60
2022/06/15 05:53:45;;;;;;;2.53;1.92;;;17.60;54.30;;;;;;5046696;28;20045;-59
2022/06/15 05:56:13;;;;;;;5.20;2.00;;;17.70;54.30;;;;;;5039392;28;20069;-59
2022/06/15 05:58:42;;;;;;;7.65;1.85;;;17.70;54.10;;;;;;5043212;28;20061;-59
2022/06/15 06:01:11;;;;;;;3.55;2.10;;;17.80;54.10;;;;;;5038178;28;20061;-60
2022/06/15 06:03:39;;;;;;;3.55;2.03;;;17.90;53.90;;;;;;5044604;28;20447;-58
2022/06/15 06:06:07;;;;;;;3.55;2.13;;;18.00;53.70;;;;;;5044726;28;20060;-59
2022/06/15 06:08:34;;;;;;;3.35;1.85;;;18.00;53.70;;;;;;5045800;28;20060;-59
2022/06/15 06:11:02;;;;;;;4.00;2.03;;;18.00;53.80;;;;;;5040013;28;20061;-59
2022/06/15 06:13:29;;;;;;;4.47;2.00;;;18.10;53.60;;;;;;5042081;28;20057;-59
2022/06/15 06:15:58;;;;;;;3.75;2.00;;;18.20;53.50;;;;;;5044570;28;20063;-59
2022/06/15 06:18:26;;;;;;;3.70;1.83;;;18.30;53.40;;;;;;5044195;28;20064;-59
2022/06/15 06:20:54;;;;;;;6.05;1.95;;;18.30;53.30;;;;;;5040740;28;20385;-58
2022/06/15 06:23:22;;;;;;;3.83;1.80;;;18.40;53.30;;;;;;5040448;28;20519;-58
2022/06/15 06:25:51;;;;;;;5.75;1.85;;;18.50;53.30;;;;;;5043737;28;20057;-59
2022/06/15 06:28:27;;;;;;;4.90;1.92;;;18.50;53.10;;;;;;5037749;28;20533;-59
2022/06/15 06:30:57;;;;;;;6.68;2.10;;;18.60;53.00;;;;;;5041480;28;20485;-59
2022/06/15 06:33:26;;;;;;;2.97;1.73;;;18.70;52.90;;;;;;5041241;28;20055;-58
2022/06/15 06:35:54;;;;;;;4.63;1.95;;;18.80;52.90;;;;;;5041386;28;20057;-59
2022/06/15 06:38:24;;;;;;;4.78;1.95;;;18.80;52.60;;;;;;5041150;28;20216;-59
2022/06/15 06:40:53;;;;;;;4.40;1.85;;;18.90;52.40;;;;;;5039500;28;20543;-58
2022/06/15 06:43:21;;;;;;;5.00;2.03;;;19.00;52.20;;;;;;5040810;28;20413;-59
2022/06/15 06:45:49;;;;;;;4.68;1.90;;;19.00;52.00;;;;;;5041112;28;20420;-59
2022/06/15 06:48:17;;;;;;;3.63;1.95;;;19.10;51.90;;;;;;5038551;28;20408;-58
2022/06/15 06:50:46;;;;;;;6.95;1.77;;;19.20;51.80;;;;;;5039570;28;20056;-57
2022/06/15 06:53:15;;;;;;;9.73;2.42;;;19.20;51.90;;;;;;5041839;28;20045;-57
2022/06/15 06:55:42;;;;;;;8.60;2.45;;;19.30;51.70;;;;;;5037056;28;20064;-59
2022/06/15 06:58:10;;;;;;;5.22;1.85;;;19.40;51.40;;;;;;5040044;28;20057;-59
2022/06/15 07:00:38;;;;;;;7.97;2.17;;;19.50;51.40;;;;;;5029142;28;20057;-59
2022/06/15 07:03:06;;;;;;;6.50;1.73;;;19.50;51.20;;;;;;5038625;28;20053;-57
2022/06/15 07:05:35;;;;;;;5.90;1.67;;;19.60;50.50;;;;;;5037921;28;20068;-59
2022/06/15 07:08:05;;;;;;;5.93;2.15;;;19.60;49.60;;;;;;5041871;28;20064;-58
2022/06/15 07:10:32;;;;;;;4.00;1.60;;;19.70;48.90;;;;;;5034263;28;20056;-59
2022/06/15 07:13:00;;;;;;;4.18;2.15;;;19.80;48.90;;;;;;5038642;28;20049;-59
2022/06/15 07:15:27;;;;;;;7.97;1.70;;;19.80;48.90;;;;;;5041964;28;20053;-59
2022/06/15 07:17:58;;;;;;;7.07;1.92;;;19.90;49.10;;;;;;5036841;28;20053;-60
2022/06/15 07:20:26;;;;;;;4.82;1.73;;;19.90;47.30;;;;;;5036179;28;20052;-59
2022/06/15 07:22:54;;;;;;;8.82;1.85;;;20.00;47.70;;;;;;5038243;28;20446;-59
2022/06/15 07:25:23;;;;;;;5.32;1.60;;;20.10;47.60;;;;;;5037467;28;20053;-60
2022/06/15 07:27:51;;;;;;;6.15;1.55;;;20.10;47.00;;;;;;5042916;28;20055;-59
2022/06/15 07:30:21;;;;;;;4.13;1.60;;;20.20;46.80;;;;;;5040481;28;20052;-59
2022/06/15 07:32:49;;;;;;;7.00;1.55;;;20.20;46.70;;;;;;5037801;28;20424;-59
2022/06/15 07:35:20;;;;;;;5.00;2.13;;;20.30;46.50;;;;;;5038372;28;20044;-59
2022/06/15 07:37:48;;;;;;;3.17;1.50;;;20.30;46.70;;;;;;5041030;28;20061;-59
2022/06/15 07:40:16;;;;;;;2.97;1.58;;;20.40;47.10;;;;;;5037489;28;20049;-60
2022/06/15 07:42:45;;;;;;;7.05;1.73;;;20.50;47.40;;;;;;5037940;28;20049;-59
2022/06/15 07:45:15;;;;;;;4.60;1.80;;;20.50;48.00;;;;;;5036312;28;20052;-59
2022/06/15 07:50:27;;;;;;;7.22;1.92;;;20.70;48.10;;;;;;5046336;28;20056;-60
2022/06/15 07:52:56;;;;;;;4.45;1.58;;;20.70;47.40;;;;;;5038142;28;20412;-59
2022/06/15 07:55:28;;;;;;;3.45;1.80;;;20.80;47.30;;;;;;5040058;28;20061;-61
2022/06/15 07:57:59;;;;;;;7.60;2.05;;;20.80;47.50;;;;;;5040893;28;20052;-60
2022/06/15 08:00:29;;;;;;;6.65;2.50;;;20.90;47.90;;;;;;5042277;28;20057;-60
2022/06/15 08:02:59;;;;;;;4.72;1.90;;;21.00;48.60;;;;;;5040784;28;20051;-60
2022/06/15 08:05:28;;;;;;;6.28;2.25;;;21.10;48.80;;;;;;5041357;28;20049;-60
2022/06/15 08:07:56;;;;;;;5.55;2.42;;;21.20;48.50;;;;;;5043626;28;20064;-60
2022/06/15 08:10:28;;;;;;;7.65;2.13;;;21.20;48.50;;;;;;5040274;28;20064;-60
2022/06/15 08:13:00;;;;;;;4.40;2.13;;;21.30;48.40;;;;;;5041879;28;20061;-59
2022/06/15 08:15:28;;;;;;;8.23;2.25;;;21.40;47.90;;;;;;5044977;28;21520;-60
2022/06/15 08:17:59;;;;;;;4.70;1.98;;;21.40;48.00;;;;;;5042067;28;20068;-58
2022/06/15 08:20:30;;;;;;;5.78;1.70;;;21.50;47.80;;;;;;5000698;28;20077;-60
2022/06/15 08:23:02;;;;;;;6.93;1.50;;;21.60;46.00;;;;;;5004684;28;20057;-60
2022/06/15 08:25:36;;;;;;;10.63;2.03;;;21.60;45.70;;;;;;5002769;28;20057;-59
2022/06/15 08:28:07;;;;;;;7.37;1.53;;;21.60;45.50;;;;;;5004834;28;20054;-60
2022/06/15 08:30:36;;;;;;;3.15;1.38;;;21.70;44.80;;;;;;5004269;28;20057;-60
2022/06/15 08:33:04;;;;;;;4.72;1.70;;;21.80;45.70;;;;;;5003599;28;20053;-60
2022/06/15 08:35:32;;;;;;;3.17;1.42;;;21.90;45.60;;;;;;5005742;28;20062;-59
2022/06/15 08:38:01;;;;;;;9.85;1.50;;;22.00;45.40;;;;;;5003710;28;20053;-60
2022/06/15 08:40:37;;;;;;;8.48;2.00;;;22.10;44.10;;;;;;4992548;28;20058;-60
2022/06/15 08:43:11;;;;;;;6.57;1.55;;;22.10;44.50;;;;;;4982835;28;20050;-59
2022/06/15 08:45:39;;;;;;;;;;;22.20;44.60;;;;;;4984172;28;20058;-60
2022/06/15 08:48:28;;;;;;;6.30;1.70;;;22.30;44.40;;;;;;4983903;28;19926;-60
2022/06/15 08:50:59;;;;;;;4.60;1.70;;;22.40;43.90;;;;;;4982332;28;20065;-59
2022/06/15 08:53:33;;;;;;;6.68;1.85;;;22.40;43.80;;;;;;4983267;28;20398;-59
2022/06/15 08:56:07;;;;;;;3.78;1.65;;;22.50;42.80;;;;;;4981775;28;20054;-60
2022/06/15 08:58:45;;;;;;;3.83;1.80;;;22.50;42.50;;;;;;4983194;28;20050;-60
2022/06/15 09:01:19;;;;;;;5.72;1.30;;;22.60;44.40;;;;;;4982695;28;20058;-60
2022/06/15 09:03:55;;;;;;;3.60;1.40;;;22.60;43.10;;;;;;4983266;28;20057;-60
2022/06/15 09:06:39;;;;;;;5.05;1.67;;;22.70;43.40;;;;;;4982871;28;20061;-59
2022/06/15 09:09:11;;;;;;;;;;;22.80;43.70;;;;;;4981483;28;20050;-59
2022/06/15 09:11:51;;;;;;;10.70;1.70;;;22.90;43.80;;;;;;4984571;28;19945;-60
2022/06/15 09:14:33;;;;;;;3.88;1.70;;;23.00;43.80;;;;;;4983318;28;20052;-60
2022/06/15 09:17:07;;;;;;;9.32;2.03;;;23.00;43.30;;;;;;4984056;28;20062;-60
2022/06/15 09:19:36;;;;;;;;;;;23.10;41.60;;;;;;4986426;28;20054;-59
2022/06/15 09:22:07;;;;;;;4.47;1.60;;;23.20;41.70;;;;;;4987052;28;19925;-58
2022/06/15 09:24:46;;;;;;;5.00;1.75;;;23.30;41.60;;;;;;4987819;28;20058;-60
2022/06/15 09:27:19;;;;;;;3.80;1.48;;;23.30;41.50;;;;;;4986603;28;20065;-60
2022/06/15 09:29:56;;;;;;;5.32;1.58;;;23.40;41.80;;;;;;4986678;28;20058;-59
2022/06/15 09:32:27;;;;;;;7.35;1.60;;;23.40;42.30;;;;;;4987113;28;20065;-60
2022/06/15 09:35:00;;;;;;;3.38;1.50;;;23.50;42.10;;;;;;4986018;28;20054;-60
2022/06/15 09:37:31;;;;;;;3.20;1.42;;;23.60;42.50;;;;;;4986521;28;20054;-59
2022/06/15 09:39:59;;;;;;;10.38;2.17;;;23.60;40.70;;;;;;4990097;28;20057;-60
2022/06/15 09:42:39;;;;;;;3.67;1.85;;;23.70;41.00;;;;;;5005602;28;20049;-58
2022/06/15 09:45:16;;;;;;;6.10;1.73;;;23.70;41.60;;;;;;5006643;28;20130;-60
2022/06/15 09:47:52;;;;;;;7.47;1.88;;;23.80;42.30;;;;;;5005643;28;20053;-60
2022/06/15 09:50:29;;;;;;;6.93;1.83;;;23.80;39.90;;;;;;5004935;28;20054;-60
2022/06/15 09:53:10;;;;;;;3.33;1.70;;;23.90;39.40;;;;;;5006008;28;20413;-59
2022/06/15 09:55:41;;;;;;;3.13;1.50;;;24.00;40.40;;;;;;5004610;28;20430;-56
2022/06/15 09:58:12;;;;;;;2.85;1.70;;;24.00;40.00;;;;;;5007005;28;20425;-60
2022/06/15 10:00:42;;;;;;;4.47;1.80;;;24.10;40.30;;;;;;5006012;28;20058;-60
2022/06/15 10:03:21;;;;;;;4.53;1.75;;;24.10;40.20;;;;;;5006197;28;20414;-59
2022/06/15 10:05:52;;;;;;;4.68;2.00;;;24.20;40.80;;;;;;5005265;28;20049;-59
2022/06/15 10:08:20;;;;;;;5.63;1.75;;;24.20;40.70;;;;;;5006103;28;20053;-60
2022/06/15 10:10:51;;;;;;;5.90;2.35;;;24.30;40.30;;;;;;5003054;28;20053;-52
2022/06/15 10:13:32;;;;;;;8.77;1.80;;;24.40;40.40;;;;;;5005339;28;20057;-60
2022/06/15 10:16:04;;;;;;;5.40;2.13;;;24.40;39.70;;;;;;5006856;28;20073;-59
2022/06/15 10:18:35;;;;;;;4.20;1.73;;;24.50;40.80;;;;;;5004998;28;20080;-59
2022/06/15 10:21:19;;;;;;;5.45;1.75;;;24.50;39.90;;;;;;5003642;28;20053;-57
2022/06/15 10:23:57;;;;;;;6.72;1.70;;;24.70;39.60;;;;;;5004464;28;20054;-59
2022/06/15 10:26:41;;;;;;;5.05;1.42;;;24.70;40.90;;;;;;5000230;28;20053;-60
2022/06/15 10:29:26;;;;;;;16.67;2.17;;;24.80;40.50;;;;;;5003259;28;20076;-60
2022/06/15 10:32:15;;;;;;;4.75;1.50;;;24.90;40.30;;;;;;5006113;28;20493;-60
2022/06/15 10:34:53;;;;;;;5.28;1.63;;;25.00;40.40;;;;;;5005000;28;20050;-59
2022/06/15 10:37:25;;;;;;;3.60;1.60;;;25.00;39.80;;;;;;5004960;28;20053;-59
2022/06/15 10:39:57;;;;;;;7.28;1.90;;;25.10;39.70;;;;;;5004302;28;20441;-59
2022/06/15 10:42:32;;;;;;;2.00;1.30;;;25.10;40.10;;;;;;5001907;28;20064;-59
2022/06/15 10:45:02;;;;;;;2.58;1.30;;;25.20;40.50;;;;;;5004415;28;20061;-57
2022/06/15 10:47:41;;;;;;;2.75;1.50;;;25.20;39.50;;;;;;5001161;28;20087;-51
2022/06/15 10:50:21;;;;;;;7.13;2.17;;;25.30;39.10;;;;;;5002294;28;20060;-60
2022/06/15 10:52:54;;;;;;;5.82;1.70;;;25.30;40.20;;;;;;5001849;28;20064;-60
2022/06/15 11:04:12;;;;;;;5.90;1.70;;;25.60;38.20;;;;;;5005443;28;20057;-59
2022/06/15 11:06:45;;;;;;;4.97;1.92;;;25.70;38.20;;;;;;5005983;28;20061;-59
2022/06/15 11:09:27;;;;;;;4.97;1.40;;;25.70;39.30;;;;;;5006040;28;20057;-60
2022/06/15 11:11:56;;;;;;;3.00;1.42;;;25.80;38.70;;;;;;5004014;28;20060;-57
2022/06/15 11:14:28;;;;;;;2.38;1.25;;;25.80;39.70;;;;;;5005342;28;20484;-56
2022/06/15 11:20:20;;;;;;;5.50;1.60;;;25.90;38.10;;;;;;5004682;28;20056;-55
2022/06/15 11:22:50;;;;;;;6.80;1.63;;;26.00;37.70;;;;;;5005491;28;20057;-57
2022/06/15 11:25:25;;;;;;;2.92;1.42;;;26.00;37.80;;;;;;5005440;28;20060;-59
2022/06/15 11:28:00;;;;;;;3.78;1.75;;;26.00;38.00;;;;;;5005271;28;20061;-59
2022/06/15 11:30:32;;;;;;;4.57;1.70;;;26.10;37.10;;;;;;5000742;28;20068;-59
2022/06/15 11:33:06;;;;;;;3.00;1.50;;;26.20;36.50;;;;;;5004452;28;20083;-59
2022/06/15 11:35:40;;;;;;;6.10;1.58;;;26.20;35.80;;;;;;5004332;28;20080;-59
2022/06/15 11:38:19;;;;;;;3.75;1.50;;;26.30;36.30;;;;;;5002882;28;20064;-59
2022/06/15 11:40:53;;;;;;;4.22;1.80;;;26.30;36.60;;;;;;5000583;28;20528;-57
2022/06/15 11:43:25;;;;;;;5.45;1.50;;;26.40;37.10;;;;;;5000281;28;20058;-59
2022/06/15 11:46:08;;;;;;;3.33;1.60;;;26.40;37.80;;;;;;5000736;28;20064;-59
2022/06/15 11:48:47;;;;;;;5.63;1.55;;;26.50;36.80;;;;;;5003400;28;20068;-59
2022/06/15 11:51:26;;;;;;;3.58;1.80;;;26.60;34.80;;;;;;5003692;28;20061;-55
2022/06/15 11:54:07;;;;;;;5.40;2.00;;;26.60;35.40;;;;;;5002742;28;20067;-59
2022/06/15 11:56:42;;;;;;;4.28;1.63;;;26.70;35.70;;;;;;4994859;28;20045;-57
2022/06/15 11:59:22;;;;;;;4.90;1.77;;;26.70;35.30;;;;;;5003103;28;20050;-60
2022/06/15 12:01:56;;;;;;;3.13;1.92;;;26.70;34.00;;;;;;4998495;28;20058;-60
2022/06/15 12:04:39;;;;;;;4.90;2.05;;;26.80;34.60;;;;;;4998374;28;20053;-59
2022/06/15 12:07:18;;;;;;;3.78;1.90;;;26.90;34.60;;;;;;5001786;28;20050;-60
2022/06/15 12:10:01;;;;;;;3.78;1.80;;;27.00;35.10;;;;;;4999104;28;20057;-57
2022/06/15 12:12:41;;;;;;;13.05;2.20;;;27.00;34.90;;;;;;4997604;28;20049;-59
2022/06/15 12:15:19;;;;;;;5.40;1.85;;;27.10;34.70;;;;;;5000489;28;21434;-59
2022/06/15 12:17:52;;;;;;;7.88;1.67;;;27.10;33.60;;;;;;4996391;28;20058;-59
2022/06/15 12:20:31;;;;;;;3.20;1.65;;;27.10;33.50;;;;;;4999810;28;20057;-60
2022/06/15 12:23:06;;;;;;;3.88;1.80;;;27.10;34.20;;;;;;4997654;28;20061;-59
2022/06/15 12:25:41;;;;;;;4.45;1.67;;;27.20;33.90;;;;;;5000439;28;20050;-56
2022/06/15 12:28:13;;;;;;;2.65;1.48;;;27.20;33.70;;;;;;5004477;28;20064;-59
2022/06/15 12:30:47;;;;;;;2.70;1.63;;;27.30;33.60;;;;;;5002950;28;20057;-59
2022/06/15 12:33:24;;;;;;;2.88;1.50;;;27.30;34.00;;;;;;5004254;28;20482;-59
2022/06/15 12:35:56;;;;;;;2.40;1.42;;;27.40;34.60;;;;;;5003880;28;20501;-58
2022/06/15 12:38:30;;;;;;;4.10;1.88;;;27.40;34.90;;;;;;5002864;28;20058;-58
2022/06/15 12:41:06;;;;;;;4.10;1.95;;;27.50;34.60;;;;;;5000346;28;20053;-59
2022/06/15 12:43:38;;;;;;;4.38;2.10;;;27.50;34.10;;;;;;5003366;28;20429;-59
2022/06/15 12:46:11;;;;;;;9.20;2.17;;;27.50;34.00;;;;;;5003327;28;20413;-59
2022/06/15 12:48:55;;;;;;;4.75;1.83;;;27.50;34.60;;;;;;5004356;28;20053;-58
2022/06/15 12:51:36;;;;;;;3.83;1.92;;;27.50;34.40;;;;;;5002252;28;20421;-56
2022/06/15 12:54:12;;;;;;;4.28;1.80;;;27.60;34.40;;;;;;4999432;28;20053;-48
2022/06/15 12:56:48;;;;;;;4.57;1.90;;;27.60;34.60;;;;;;5000928;28;20405;-59
2022/06/15 12:59:32;;;;;;;4.18;1.85;;;27.60;33.00;;;;;;5000042;28;20062;-59
2022/06/15 13:02:06;;;;;;;3.35;1.60;;;27.70;33.60;;;;;;4998894;28;20050;-59
2022/06/15 13:04:42;;;;;;;7.30;1.95;;;27.70;33.40;;;;;;4999875;28;20125;-58
2022/06/15 13:07:26;;;;;;;6.15;2.08;;;27.70;33.40;;;;;;4999768;28;20053;-57
2022/06/15 13:10:26;;;;;;;2.57;1.63;;;27.80;33.70;;;;;;5000207;28;20053;-57
2022/06/15 13:12:57;;;;;;;3.30;1.67;;;27.80;34.10;;;;;;4978821;28;20535;-59
2022/06/15 13:15:29;;;;;;;9.10;1.77;;;27.80;34.10;;;;;;5000780;28;20501;-58
2022/06/15 13:18:08;;;;;;;3.25;1.52;;;27.90;35.30;;;;;;4999297;28;20057;-60
2022/06/15 13:20:58;;;;;;;3.70;1.75;;;28.00;34.10;;;;;;5000108;28;20891;-56
2022/06/15 13:23:28;;;;;;;3.33;1.63;;;28.00;34.20;;;;;;5002650;28;20383;-59
2022/06/15 13:25:59;;;;;;;4.55;1.90;;;28.00;33.70;;;;;;5002163;28;20441;-57
2022/06/15 13:28:29;;;;;;;3.58;1.63;;;28.10;33.60;;;;;;4998578;28;20053;-57
2022/06/15 13:30:58;;;;;;;5.05;1.75;;;28.10;33.90;;;;;;4998886;28;20058;-59